Hauptseite
METAR-TAF:

METAR-TAF

Flughäfen :

Flughafen Córdoba

Córdoba, Argentinien

Breite: 31-19S, Länge: 064-13W, Höhe: 484 m

Beobachtung

Neuester Wetterbericht von vor 20 Minuten, um 01:00 UTC
Wind 4 kt aus Süd
Temperatur 9°C
Luftfeuchtigkeit 49%
Luftdruck 1022 hPa
Sichtweite 10 km oder mehr
keine Wolken unter 1500 m und keine Kumulonimbus oder Gewitterwolken

METAR: SACO 240100Z 17004KT CAVOK 09/M01 Q1022 NOSIG

Zeit: 22:20 (01:20 UTC)

Prognose

Neuester Wetterbericht von vor 2 Stunden und 20 Minuten, um 23:00 UTC
Gültige Prognose vom 24 um 00 UTC bis 24 um 24 UTC
Wind 5 kt aus Süd
Sichtweite 10 km oder mehr
keine Wolken unter 1500 m und keine Kumulonimbus oder Gewitterwolken
Übergehend zu
vom 24 um 11 UTC bis 24 um 14 UTC
Durchbrochene Bewölkung in der Höhe von 4000 ft

TAF: SACO 232300Z 2400/2424 18005KT CAVOK TX11/2418Z TNM00/2411Z BECMG 2411/2414 BKN040

Wetterbeobachtungen und Prognosen von mehr als 4000 Flughäfen (METAR und TAF Bericht).

Die verfügbaren Stationen werden durch gelbe und rote Markierungen auf der Karte dargestellt.

Führen Sie die Maus auf sie, um den Namen der Station zu sehen.

Darauf klicken, um die Beobachtung von Wetterbeobachtungen und Prognosen zu sehen.

Um die Karte zu ändern : klicken Sie auf den grünen Tasten mit einem schwarzen Kreuz Zum Vergrößern, auf den grünen Button mit einem Gedankenstrich zu verkleinern, oder auf die grünen Pfeile für benachbarte Karten.


METAR-TAF: